createdAt,value
2022-10-31T00:00:48.945Z,100.00
2022-10-31T00:06:11.263Z,100.00
2022-10-31T00:11:33.261Z,100.00
2022-10-31T00:16:55.084Z,100.00
2022-10-31T00:22:16.902Z,100.00
2022-10-31T00:27:38.743Z,100.00
2022-10-31T00:33:00.885Z,100.00
2022-10-31T00:38:24.250Z,100.00
2022-10-31T00:43:46.078Z,100.00
2022-10-31T00:49:07.995Z,100.00
2022-10-31T00:54:29.808Z,100.00
2022-10-31T00:59:51.645Z,100.00
2022-10-31T01:05:14.016Z,100.00
2022-10-31T01:10:36.020Z,100.00
2022-10-31T01:15:59.218Z,100.00
2022-10-31T01:21:23.650Z,100.00
2022-10-31T01:26:45.499Z,100.00
2022-10-31T01:32:07.327Z,100.00
2022-10-31T01:37:29.172Z,100.00
2022-10-31T01:42:50.967Z,100.00
2022-10-31T01:48:18.660Z,100.00
2022-10-31T01:53:41.793Z,100.00
2022-10-31T01:59:07.872Z,100.00
2022-10-31T02:04:30.726Z,100.00
2022-10-31T02:09:54.221Z,100.00
2022-10-31T02:15:16.095Z,100.00
2022-10-31T02:21:04.826Z,100.00
2022-10-31T02:26:47.141Z,100.00
2022-10-31T02:32:18.264Z,100.00
2022-10-31T02:37:57.783Z,100.00
2022-10-31T02:43:46.972Z,100.00
2022-10-31T02:49:19.594Z,100.00
2022-10-31T02:54:41.731Z,100.00
2022-10-31T03:00:09.221Z,100.00
2022-10-31T03:05:33.844Z,100.00
2022-10-31T03:10:59.837Z,100.00
2022-10-31T03:16:38.771Z,100.00
2022-10-31T03:22:11.303Z,100.00
2022-10-31T03:27:35.633Z,100.00
2022-10-31T03:33:01.109Z,100.00
2022-10-31T03:38:23.681Z,100.00
2022-10-31T03:43:53.794Z,100.00
2022-10-31T03:49:15.886Z,100.00
2022-10-31T03:54:44.193Z,100.00
2022-10-31T04:00:09.739Z,100.00
2022-10-31T04:05:32.183Z,100.00
2022-10-31T04:10:57.078Z,100.00
2022-10-31T04:16:19.644Z,100.00
2022-10-31T04:21:41.556Z,100.00
2022-10-31T04:27:03.455Z,100.00
2022-10-31T04:32:25.315Z,100.00
2022-10-31T04:37:47.138Z,100.00
2022-10-31T04:43:09.079Z,100.00
2022-10-31T04:48:31.084Z,100.00
2022-10-31T04:53:52.897Z,100.00
2022-10-31T04:59:14.698Z,100.00
2022-10-31T05:04:36.544Z,100.00
2022-10-31T05:09:58.366Z,100.00
2022-10-31T05:15:22.120Z,100.00
2022-10-31T05:20:43.892Z,100.00
2022-10-31T05:26:05.785Z,100.00
2022-10-31T05:31:27.610Z,100.00
2022-10-31T05:36:49.463Z,100.00
2022-10-31T05:42:11.285Z,100.00
2022-10-31T05:47:33.133Z,100.00
2022-10-31T05:53:00.749Z,100.00
2022-10-31T05:58:22.560Z,100.00
2022-10-31T06:03:44.438Z,100.00
2022-10-31T06:09:06.259Z,100.00
2022-10-31T06:14:28.083Z,100.00
2022-10-31T06:25:16.773Z,100.00
2022-10-31T06:30:39.879Z,100.00
2022-10-31T06:36:02.385Z,100.00
2022-10-31T06:41:24.294Z,100.00
2022-10-31T06:46:49.302Z,100.00
2022-10-31T06:52:11.982Z,100.00
2022-10-31T06:57:33.764Z,100.00
2022-10-31T07:03:03.426Z,100.00
2022-10-31T07:08:25.869Z,100.00
2022-10-31T07:13:47.700Z,100.00
2022-10-31T07:19:09.580Z,100.00
2022-10-31T07:24:31.453Z,100.00
2022-10-31T07:29:53.288Z,100.00
2022-10-31T07:35:20.700Z,100.00
2022-10-31T07:40:43.313Z,100.00
2022-10-31T07:46:05.268Z,100.00
2022-10-31T07:51:27.150Z,94.41
2022-10-31T07:56:49.023Z,90.12
2022-10-31T08:02:10.799Z,84.20
2022-10-31T08:07:37.541Z,74.52
2022-10-31T08:13:07.389Z,61.76
2022-10-31T08:18:29.220Z,51.66
2022-10-31T08:23:51.029Z,46.49
2022-10-31T08:29:12.827Z,43.90
2022-10-31T08:34:34.635Z,42.20
2022-10-31T08:39:56.471Z,39.27
2022-10-31T08:45:18.282Z,38.80
2022-10-31T08:50:40.707Z,37.55
2022-10-31T08:56:02.797Z,36.42
2022-10-31T09:01:24.770Z,36.73
2022-10-31T09:07:07.852Z,35.38
2022-10-31T09:12:28.530Z,36.09
2022-10-31T09:17:50.466Z,36.95
2022-10-31T09:23:23.179Z,36.34
2022-10-31T09:28:44.975Z,38.81
2022-10-31T09:34:06.820Z,37.43
2022-10-31T09:39:28.663Z,37.38
2022-10-31T09:45:04.859Z,43.81
2022-10-31T09:50:32.643Z,51.10
2022-10-31T09:55:55.981Z,45.54
2022-10-31T10:01:29.619Z,52.74
2022-10-31T10:06:53.022Z,54.27
2022-10-31T10:12:38.780Z,57.44
2022-10-31T10:18:32.606Z,61.51
2022-10-31T10:24:25.521Z,67.04
2022-10-31T10:30:19.514Z,66.50
2022-10-31T10:35:54.576Z,67.63
2022-10-31T10:41:24.911Z,70.06
2022-10-31T10:46:56.869Z,68.85
2022-10-31T10:52:59.783Z,69.66
2022-10-31T10:58:21.610Z,70.38
2022-10-31T11:03:43.530Z,70.65
2022-10-31T11:09:11.344Z,71.72
2022-10-31T11:14:38.289Z,70.89
2022-10-31T11:20:24.462Z,71.00
2022-10-31T11:26:01.384Z,71.30
2022-10-31T11:31:23.699Z,70.59
2022-10-31T11:36:45.699Z,68.94
2022-10-31T11:42:09.071Z,68.53
2022-10-31T11:47:32.954Z,68.79
2022-10-31T11:58:25.301Z,67.92
2022-10-31T12:04:09.436Z,68.66
2022-10-31T12:09:35.280Z,69.03
2022-10-31T12:15:18.691Z,68.84
2022-10-31T12:20:58.115Z,68.09
2022-10-31T12:26:38.278Z,67.31
2022-10-31T12:32:33.491Z,67.30
2022-10-31T12:38:43.200Z,69.36
2022-10-31T12:44:19.782Z,68.73
2022-10-31T12:49:53.703Z,69.33
2022-10-31T12:55:38.894Z,69.40
2022-10-31T13:01:22.762Z,69.67
2022-10-31T13:07:09.374Z,69.45
2022-10-31T13:12:37.378Z,70.00
2022-10-31T13:18:05.687Z,70.54
2022-10-31T13:23:51.337Z,70.34
2022-10-31T13:29:37.027Z,71.44
2022-10-31T13:35:00.265Z,72.55
2022-10-31T13:40:47.800Z,74.27
2022-10-31T13:52:12.325Z,75.24
2022-10-31T13:57:44.047Z,74.98
2022-10-31T14:03:05.946Z,75.80
2022-10-31T14:08:29.355Z,76.01
2022-10-31T14:13:51.708Z,76.79
2022-10-31T14:19:19.319Z,76.27
2022-10-31T14:24:41.192Z,78.11
2022-10-31T14:30:16.543Z,80.89
2022-10-31T14:35:54.936Z,82.56
2022-10-31T14:41:33.030Z,84.23
2022-10-31T14:47:11.451Z,86.07
2022-10-31T14:52:35.710Z,90.29
2022-10-31T14:58:08.172Z,92.16
2022-10-31T15:03:39.449Z,95.02
2022-10-31T15:09:03.370Z,95.82
2022-10-31T15:14:27.880Z,97.07
2022-10-31T15:19:50.120Z,99.35
2022-10-31T15:25:19.197Z,99.38
2022-10-31T15:30:50.268Z,100.00
2022-10-31T15:36:25.542Z,100.00
2022-10-31T15:41:56.270Z,100.00
2022-10-31T15:47:20.805Z,100.00
2022-10-31T15:52:48.666Z,100.00
2022-10-31T15:58:17.147Z,100.00
2022-10-31T16:03:38.960Z,100.00
2022-10-31T16:09:01.360Z,100.00
2022-10-31T16:14:31.124Z,100.00
2022-10-31T16:20:00.781Z,100.00
2022-10-31T16:25:34.946Z,100.00
2022-10-31T16:30:57.998Z,100.00
2022-10-31T16:36:36.131Z,100.00
2022-10-31T16:41:58.358Z,100.00
2022-10-31T16:47:22.210Z,100.00
2022-10-31T16:53:08.304Z,100.00
2022-10-31T16:58:34.018Z,100.00
2022-10-31T17:03:55.848Z,100.00
2022-10-31T17:09:17.832Z,100.00
2022-10-31T17:14:39.728Z,100.00
2022-10-31T17:20:01.524Z,100.00
2022-10-31T17:25:28.700Z,100.00
2022-10-31T17:30:50.617Z,100.00
2022-10-31T17:36:12.421Z,100.00
2022-10-31T17:41:34.255Z,100.00
2022-10-31T17:46:56.141Z,100.00
2022-10-31T17:52:17.930Z,100.00
2022-10-31T17:57:40.303Z,100.00
2022-10-31T18:03:03.899Z,100.00
2022-10-31T18:08:30.805Z,100.00
2022-10-31T18:13:57.003Z,100.00
2022-10-31T18:19:18.804Z,100.00
2022-10-31T18:24:40.622Z,100.00
2022-10-31T18:30:02.485Z,100.00
2022-10-31T18:35:24.376Z,100.00
2022-10-31T18:40:46.242Z,100.00
2022-10-31T18:46:12.021Z,100.00
2022-10-31T18:51:33.828Z,100.00
2022-10-31T18:56:55.641Z,100.00
2022-10-31T19:02:17.577Z,100.00
2022-10-31T19:07:39.588Z,100.00
2022-10-31T19:13:01.685Z,100.00
2022-10-31T19:18:23.719Z,100.00
2022-10-31T19:23:45.596Z,100.00
2022-10-31T19:29:07.405Z,100.00
2022-10-31T19:34:29.220Z,100.00
2022-10-31T19:39:51.791Z,100.00
2022-10-31T19:45:13.594Z,100.00
2022-10-31T19:50:35.432Z,100.00
2022-10-31T19:55:58.032Z,100.00
2022-10-31T20:01:22.944Z,100.00
2022-10-31T20:06:45.032Z,100.00
2022-10-31T20:12:07.160Z,100.00
2022-10-31T20:17:29.009Z,100.00
2022-10-31T20:22:50.892Z,100.00
2022-10-31T20:28:12.809Z,100.00
2022-10-31T20:33:34.625Z,100.00
2022-10-31T20:38:57.474Z,100.00
2022-10-31T20:44:19.258Z,100.00
2022-10-31T20:49:41.106Z,100.00
2022-10-31T20:55:03.075Z,100.00
2022-10-31T21:00:24.911Z,100.00
2022-10-31T21:05:57.878Z,100.00
2022-10-31T21:11:22.576Z,100.00
2022-10-31T21:16:44.463Z,100.00
2022-10-31T21:22:06.314Z,100.00
2022-10-31T21:27:28.164Z,100.00
2022-10-31T21:32:49.967Z,100.00
2022-10-31T21:38:11.801Z,100.00
2022-10-31T21:43:40.890Z,100.00
2022-10-31T21:49:04.091Z,100.00
2022-10-31T21:54:25.941Z,100.00
2022-10-31T21:59:47.752Z,100.00
2022-10-31T22:05:09.578Z,100.00
2022-10-31T22:10:31.445Z,100.00
2022-10-31T22:15:53.225Z,100.00
2022-10-31T22:21:20.305Z,100.00
2022-10-31T22:26:42.304Z,100.00
2022-10-31T22:32:04.291Z,100.00
2022-10-31T22:37:26.128Z,100.00
2022-10-31T22:42:48.001Z,100.00
2022-10-31T22:48:09.931Z,100.00
2022-10-31T22:53:31.888Z,100.00
2022-10-31T22:58:53.958Z,100.00
2022-10-31T23:04:17.023Z,100.00
2022-10-31T23:09:39.074Z,100.00
2022-10-31T23:15:00.881Z,100.00
2022-10-31T23:20:23.291Z,100.00
2022-10-31T23:25:45.424Z,100.00
2022-10-31T23:31:07.234Z,100.00
2022-10-31T23:36:29.072Z,100.00
2022-10-31T23:41:51.004Z,100.00
2022-10-31T23:47:13.182Z,100.00
2022-10-31T23:52:35.091Z,100.00
2022-10-31T23:57:56.970Z,100.00
